sensor_id;sensor_type;location;lat;lon;timestamp;pressure;altitude;pressure_sealevel;temperature;humidity
49040;BME280;36811;49.732;13.402;2023-01-29T00:01:41;98939.72;;;-1.96;69.48
49040;BME280;36811;49.732;13.402;2023-01-29T00:04:07;98945.16;;;-1.89;68.67
49040;BME280;36811;49.732;13.402;2023-01-29T00:06:33;98952.22;;;-2.00;69.25
49040;BME280;36811;49.732;13.402;2023-01-29T00:08:59;98957.97;;;-1.96;68.93
49040;BME280;36811;49.732;13.402;2023-01-29T00:11:24;98946.41;;;-1.94;69.09
49040;BME280;36811;49.732;13.402;2023-01-29T00:13:51;98944.47;;;-1.92;69.23
49040;BME280;36811;49.732;13.402;2023-01-29T00:16:16;98942.03;;;-1.93;68.79
49040;BME280;36811;49.732;13.402;2023-01-29T00:18:42;98941.66;;;-1.98;67.76
49040;BME280;36811;49.732;13.402;2023-01-29T00:21:13;98949.09;;;-2.03;68.50
49040;BME280;36811;49.732;13.402;2023-01-29T00:23:40;98945.59;;;-1.94;68.84
49040;BME280;36811;49.732;13.402;2023-01-29T00:26:06;98940.16;;;-2.01;68.78
49040;BME280;36811;49.732;13.402;2023-01-29T00:28:33;98933.84;;;-1.98;68.50
49040;BME280;36811;49.732;13.402;2023-01-29T00:31:06;98936.53;;;-1.90;68.05
49040;BME280;36811;49.732;13.402;2023-01-29T00:33:32;98938.00;;;-1.87;68.35
49040;BME280;36811;49.732;13.402;2023-01-29T00:36:01;98928.38;;;-1.87;68.04
49040;BME280;36811;49.732;13.402;2023-01-29T00:38:27;98917.28;;;-1.89;68.35
49040;BME280;36811;49.732;13.402;2023-01-29T00:40:53;98918.41;;;-1.92;68.53
49040;BME280;36811;49.732;13.402;2023-01-29T00:43:37;98923.25;;;-1.97;69.33
49040;BME280;36811;49.732;13.402;2023-01-29T00:46:21;98917.16;;;-2.05;69.20
49040;BME280;36811;49.732;13.402;2023-01-29T00:48:46;98920.19;;;-2.10;68.76
49040;BME280;36811;49.732;13.402;2023-01-29T00:51:12;98921.75;;;-2.17;68.14
49040;BME280;36811;49.732;13.402;2023-01-29T00:53:37;98923.69;;;-2.01;70.22
49040;BME280;36811;49.732;13.402;2023-01-29T00:56:03;98923.41;;;-1.98;68.09
49040;BME280;36811;49.732;13.402;2023-01-29T00:58:29;98920.34;;;-1.94;68.27
49040;BME280;36811;49.732;13.402;2023-01-29T01:01:01;98919.53;;;-1.94;68.56
49040;BME280;36811;49.732;13.402;2023-01-29T01:03:28;98927.06;;;-1.91;69.03
49040;BME280;36811;49.732;13.402;2023-01-29T01:06:05;98918.94;;;-1.88;68.36
49040;BME280;36811;49.732;13.402;2023-01-29T01:08:31;98917.66;;;-1.84;68.79
49040;BME280;36811;49.732;13.402;2023-01-29T01:11:15;98919.16;;;-1.81;68.56
49040;BME280;36811;49.732;13.402;2023-01-29T01:13:41;98913.72;;;-1.88;69.14
49040;BME280;36811;49.732;13.402;2023-01-29T01:16:09;98909.00;;;-1.84;68.60
49040;BME280;36811;49.732;13.402;2023-01-29T01:18:35;98905.75;;;-1.86;69.36
49040;BME280;36811;49.732;13.402;2023-01-29T01:21:02;98907.03;;;-1.90;68.32
49040;BME280;36811;49.732;13.402;2023-01-29T01:23:28;98909.47;;;-1.89;68.80
49040;BME280;36811;49.732;13.402;2023-01-29T01:25:53;98909.09;;;-1.94;68.84
49040;BME280;36811;49.732;13.402;2023-01-29T01:28:19;98898.97;;;-1.97;68.31
49040;BME280;36811;49.732;13.402;2023-01-29T01:30:45;98893.75;;;-1.97;68.29
49040;BME280;36811;49.732;13.402;2023-01-29T01:33:11;98896.81;;;-2.02;68.54
49040;BME280;36811;49.732;13.402;2023-01-29T01:35:38;98892.50;;;-1.93;68.76
49040;BME280;36811;49.732;13.402;2023-01-29T01:38:03;98886.91;;;-1.98;68.30
49040;BME280;36811;49.732;13.402;2023-01-29T01:40:29;98895.69;;;-1.99;69.45
49040;BME280;36811;49.732;13.402;2023-01-29T01:42:58;98895.75;;;-1.91;68.80
49040;BME280;36811;49.732;13.402;2023-01-29T01:47:58;98886.63;;;-1.95;68.40
49040;BME280;36811;49.732;13.402;2023-01-29T01:53:07;98888.84;;;-2.00;68.86
49040;BME280;36811;49.732;13.402;2023-01-29T01:55:36;98888.97;;;-2.02;68.84
49040;BME280;36811;49.732;13.402;2023-01-29T01:58:08;98886.91;;;-2.16;69.88
49040;BME280;36811;49.732;13.402;2023-01-29T02:00:35;98892.13;;;-2.16;69.02
49040;BME280;36811;49.732;13.402;2023-01-29T02:03:01;98886.09;;;-2.16;70.16
49040;BME280;36811;49.732;13.402;2023-01-29T02:05:47;98893.38;;;-2.20;70.44
49040;BME280;36811;49.732;13.402;2023-01-29T02:08:44;98895.53;;;-2.33;69.40
49040;BME280;36811;49.732;13.402;2023-01-29T02:11:30;98888.47;;;-2.23;69.78
49040;BME280;36811;49.732;13.402;2023-01-29T02:13:56;98878.06;;;-2.23;70.39
49040;BME280;36811;49.732;13.402;2023-01-29T02:16:22;98888.78;;;-2.08;69.65
49040;BME280;36811;49.732;13.402;2023-01-29T02:18:49;98890.91;;;-2.21;69.81
49040;BME280;36811;49.732;13.402;2023-01-29T02:27:16;98888.53;;;-1.97;69.97
49040;BME280;36811;49.732;13.402;2023-01-29T02:30:07;98884.69;;;-1.93;70.25
49040;BME280;36811;49.732;13.402;2023-01-29T02:32:48;98890.47;;;-1.99;70.20
49040;BME280;36811;49.732;13.402;2023-01-29T02:43:40;98883.84;;;-1.94;69.45
49040;BME280;36811;49.732;13.402;2023-01-29T02:51:23;98874.16;;;-2.01;70.30
49040;BME280;36811;49.732;13.402;2023-01-29T02:57:12;98876.56;;;-1.90;69.94
49040;BME280;36811;49.732;13.402;2023-01-29T02:59:21;98874.38;;;-1.95;69.14
49040;BME280;36811;49.732;13.402;2023-01-29T03:01:52;98873.50;;;-2.03;69.01
49040;BME280;36811;49.732;13.402;2023-01-29T03:04:26;98878.06;;;-2.05;68.94
49040;BME280;36811;49.732;13.402;2023-01-29T03:06:59;98883.78;;;-2.02;68.81
49040;BME280;36811;49.732;13.402;2023-01-29T03:09:36;98892.13;;;-1.98;69.67
49040;BME280;36811;49.732;13.402;2023-01-29T03:12:20;98906.13;;;-1.99;69.42
49040;BME280;36811;49.732;13.402;2023-01-29T03:15:19;98911.41;;;-2.09;69.97
49040;BME280;36811;49.732;13.402;2023-01-29T03:17:56;98920.19;;;-2.10;69.47
49040;BME280;36811;49.732;13.402;2023-01-29T03:20:28;98905.06;;;-2.06;69.32
49040;BME280;36811;49.732;13.402;2023-01-29T03:23:04;98908.13;;;-1.93;69.26
49040;BME280;36811;49.732;13.402;2023-01-29T03:25:33;98917.75;;;-1.94;69.90
49040;BME280;36811;49.732;13.402;2023-01-29T03:28:20;98912.75;;;-1.87;69.45
49040;BME280;36811;49.732;13.402;2023-01-29T03:31:09;98910.13;;;-1.87;69.51
49040;BME280;36811;49.732;13.402;2023-01-29T03:34:07;98910.44;;;-1.90;70.13
49040;BME280;36811;49.732;13.402;2023-01-29T03:36:48;98901.66;;;-1.89;69.50
49040;BME280;36811;49.732;13.402;2023-01-29T03:39:21;98906.28;;;-1.83;70.01
49040;BME280;36811;49.732;13.402;2023-01-29T03:42:01;98904.78;;;-2.03;69.48
49040;BME280;36811;49.732;13.402;2023-01-29T03:50:04;98905.25;;;-1.90;69.52
49040;BME280;36811;49.732;13.402;2023-01-29T03:55:16;98894.88;;;-2.00;69.35
49040;BME280;36811;49.732;13.402;2023-01-29T04:00:33;98901.50;;;-2.05;69.65
49040;BME280;36811;49.732;13.402;2023-01-29T04:05:46;98899.94;;;-2.16;68.83
49040;BME280;36811;49.732;13.402;2023-01-29T04:08:21;98899.69;;;-2.22;69.58
49040;BME280;36811;49.732;13.402;2023-01-29T04:10:48;98900.03;;;-2.35;70.11
49040;BME280;36811;49.732;13.402;2023-01-29T04:13:17;98898.56;;;-2.20;69.85
49040;BME280;36811;49.732;13.402;2023-01-29T04:15:48;98896.41;;;-2.24;69.44
49040;BME280;36811;49.732;13.402;2023-01-29T04:18:15;98892.47;;;-2.28;68.93
49040;BME280;36811;49.732;13.402;2023-01-29T04:20:42;98896.03;;;-2.29;68.79
49040;BME280;36811;49.732;13.402;2023-01-29T04:23:24;98895.00;;;-2.36;69.94
49040;BME280;36811;49.732;13.402;2023-01-29T04:26:37;98896.84;;;-2.46;68.88
49040;BME280;36811;49.732;13.402;2023-01-29T04:29:19;98895.72;;;-2.44;68.97
49040;BME280;36811;49.732;13.402;2023-01-29T04:32:14;98885.63;;;-2.29;68.91
49040;BME280;36811;49.732;13.402;2023-01-29T04:40:46;98881.69;;;-2.33;69.50
49040;BME280;36811;49.732;13.402;2023-01-29T04:43:37;98859.78;;;-2.40;68.98
49040;BME280;36811;49.732;13.402;2023-01-29T04:46:16;98866.63;;;-2.39;69.95
49040;BME280;36811;49.732;13.402;2023-01-29T04:54:01;98849.38;;;-2.40;69.05
49040;BME280;36811;49.732;13.402;2023-01-29T04:56:42;98843.91;;;-2.47;69.28
49040;BME280;36811;49.732;13.402;2023-01-29T04:59:18;98848.47;;;-2.49;69.49
49040;BME280;36811;49.732;13.402;2023-01-29T05:01:46;98849.78;;;-2.45;69.97
49040;BME280;36811;49.732;13.402;2023-01-29T05:04:16;98855.81;;;-2.44;69.32
49040;BME280;36811;49.732;13.402;2023-01-29T05:06:44;98859.78;;;-2.40;69.68
49040;BME280;36811;49.732;13.402;2023-01-29T05:09:13;98855.34;;;-2.30;70.25
49040;BME280;36811;49.732;13.402;2023-01-29T05:11:41;98859.44;;;-2.28;69.01
49040;BME280;36811;49.732;13.402;2023-01-29T05:14:10;98855.09;;;-2.37;69.86
49040;BME280;36811;49.732;13.402;2023-01-29T05:16:45;98855.31;;;-2.48;69.99
49040;BME280;36811;49.732;13.402;2023-01-29T05:19:13;98862.16;;;-2.47;69.96
49040;BME280;36811;49.732;13.402;2023-01-29T05:21:43;98850.78;;;-2.46;70.25
49040;BME280;36811;49.732;13.402;2023-01-29T05:26:42;98844.16;;;-2.58;70.17
49040;BME280;36811;49.732;13.402;2023-01-29T05:29:27;98838.63;;;-2.55;69.39
49040;BME280;36811;49.732;13.402;2023-01-29T05:31:53;98835.97;;;-2.45;69.96
49040;BME280;36811;49.732;13.402;2023-01-29T05:34:19;98830.81;;;-2.37;70.35
49040;BME280;36811;49.732;13.402;2023-01-29T05:36:45;98836.19;;;-2.39;69.96
49040;BME280;36811;49.732;13.402;2023-01-29T05:39:10;98833.41;;;-2.55;69.33
49040;BME280;36811;49.732;13.402;2023-01-29T05:41:36;98837.81;;;-2.55;69.61
49040;BME280;36811;49.732;13.402;2023-01-29T05:44:01;98841.47;;;-2.48;70.33
49040;BME280;36811;49.732;13.402;2023-01-29T05:46:27;98831.28;;;-2.42;69.42
49040;BME280;36811;49.732;13.402;2023-01-29T05:48:53;98826.81;;;-2.32;70.64
49040;BME280;36811;49.732;13.402;2023-01-29T05:51:18;98832.09;;;-2.24;70.29
49040;BME280;36811;49.732;13.402;2023-01-29T05:53:44;98829.69;;;-2.17;70.42
49040;BME280;36811;49.732;13.402;2023-01-29T05:56:09;98816.25;;;-2.30;69.23
49040;BME280;36811;49.732;13.402;2023-01-29T05:58:36;98827.41;;;-2.38;69.80
49040;BME280;36811;49.732;13.402;2023-01-29T06:01:13;98825.19;;;-2.50;69.75
49040;BME280;36811;49.732;13.402;2023-01-29T06:03:39;98820.19;;;-2.44;69.74
49040;BME280;36811;49.732;13.402;2023-01-29T06:06:06;98817.75;;;-2.45;70.29
49040;BME280;36811;49.732;13.402;2023-01-29T06:08:31;98810.06;;;-2.47;69.49
49040;BME280;36811;49.732;13.402;2023-01-29T06:10:57;98807.00;;;-2.42;71.17
49040;BME280;36811;49.732;13.402;2023-01-29T06:13:23;98805.84;;;-2.30;70.17
49040;BME280;36811;49.732;13.402;2023-01-29T06:15:48;98801.19;;;-2.19;69.86
49040;BME280;36811;49.732;13.402;2023-01-29T06:18:14;98789.50;;;-2.15;70.71
49040;BME280;36811;49.732;13.402;2023-01-29T06:20:40;98795.06;;;-2.10;70.32
49040;BME280;36811;49.732;13.402;2023-01-29T06:23:05;98800.66;;;-2.05;70.30
49040;BME280;36811;49.732;13.402;2023-01-29T06:25:31;98779.66;;;-2.03;69.99
49040;BME280;36811;49.732;13.402;2023-01-29T06:27:56;98793.06;;;-1.98;70.16
49040;BME280;36811;49.732;13.402;2023-01-29T06:30:22;98781.16;;;-2.01;69.58
49040;BME280;36811;49.732;13.402;2023-01-29T06:32:47;98791.56;;;-2.01;70.06
49040;BME280;36811;49.732;13.402;2023-01-29T06:35:13;98794.69;;;-1.97;69.95
49040;BME280;36811;49.732;13.402;2023-01-29T06:37:39;98800.97;;;-2.08;70.49
49040;BME280;36811;49.732;13.402;2023-01-29T06:40:06;98793.59;;;-2.30;70.24
49040;BME280;36811;49.732;13.402;2023-01-29T06:42:34;98791.75;;;-2.37;70.99
49040;BME280;36811;49.732;13.402;2023-01-29T06:45:00;98789.75;;;-2.43;71.34
49040;BME280;36811;49.732;13.402;2023-01-29T06:47:26;98793.69;;;-2.39;71.03
49040;BME280;36811;49.732;13.402;2023-01-29T06:49:52;98785.41;;;-2.35;71.37
49040;BME280;36811;49.732;13.402;2023-01-29T06:52:18;98804.47;;;-2.34;71.06
49040;BME280;36811;49.732;13.402;2023-01-29T06:54:43;98800.25;;;-2.35;71.50
49040;BME280;36811;49.732;13.402;2023-01-29T06:57:09;98800.00;;;-2.42;71.72
49040;BME280;36811;49.732;13.402;2023-01-29T06:59:35;98806.03;;;-2.41;71.54
49040;BME280;36811;49.732;13.402;2023-01-29T07:02:02;98798.31;;;-2.33;72.30
49040;BME280;36811;49.732;13.402;2023-01-29T07:04:28;98790.34;;;-2.32;71.88
49040;BME280;36811;49.732;13.402;2023-01-29T07:06:53;98795.47;;;-2.22;72.31
49040;BME280;36811;49.732;13.402;2023-01-29T07:09:19;98795.59;;;-2.06;71.20
49040;BME280;36811;49.732;13.402;2023-01-29T07:11:44;98799.09;;;-1.98;71.17
49040;BME280;36811;49.732;13.402;2023-01-29T07:14:10;98816.59;;;-1.90;71.27
49040;BME280;36811;49.732;13.402;2023-01-29T07:16:36;98813.66;;;-1.87;69.98
49040;BME280;36811;49.732;13.402;2023-01-29T07:19:01;98822.41;;;-1.96;70.59
49040;BME280;36811;49.732;13.402;2023-01-29T07:21:27;98823.00;;;-2.02;70.87
49040;BME280;36811;49.732;13.402;2023-01-29T07:23:55;98813.91;;;-1.98;70.49
49040;BME280;36811;49.732;13.402;2023-01-29T07:26:20;98812.44;;;-2.01;70.21
49040;BME280;36811;49.732;13.402;2023-01-29T07:28:46;98812.66;;;-2.12;70.20
49040;BME280;36811;49.732;13.402;2023-01-29T07:31:12;98823.53;;;-2.16;71.43
49040;BME280;36811;49.732;13.402;2023-01-29T07:33:42;98829.50;;;-2.24;70.40
49040;BME280;36811;49.732;13.402;2023-01-29T07:36:10;98827.72;;;-2.23;70.18
49040;BME280;36811;49.732;13.402;2023-01-29T07:38:35;98836.94;;;-2.29;70.45
49040;BME280;36811;49.732;13.402;2023-01-29T07:41:01;98841.03;;;-2.26;71.01
49040;BME280;36811;49.732;13.402;2023-01-29T07:43:26;98838.63;;;-2.20;71.13
49040;BME280;36811;49.732;13.402;2023-01-29T07:45:52;98844.31;;;-2.24;70.49
49040;BME280;36811;49.732;13.402;2023-01-29T07:48:18;98866.56;;;-2.30;70.03
49040;BME280;36811;49.732;13.402;2023-01-29T07:50:43;98842.97;;;-2.28;70.21
49040;BME280;36811;49.732;13.402;2023-01-29T07:53:15;98847.16;;;-2.35;70.80
49040;BME280;36811;49.732;13.402;2023-01-29T07:55:44;98839.16;;;-2.34;70.19
49040;BME280;36811;49.732;13.402;2023-01-29T07:58:09;98840.88;;;-2.25;70.57
49040;BME280;36811;49.732;13.402;2023-01-29T08:00:35;98849.22;;;-2.21;70.75
49040;BME280;36811;49.732;13.402;2023-01-29T08:03:06;98846.69;;;-2.13;70.94
49040;BME280;36811;49.732;13.402;2023-01-29T08:05:32;98849.88;;;-2.19;70.23
49040;BME280;36811;49.732;13.402;2023-01-29T08:07:58;98869.13;;;-2.20;70.13
49040;BME280;36811;49.732;13.402;2023-01-29T08:10:24;98870.53;;;-2.08;70.41
49040;BME280;36811;49.732;13.402;2023-01-29T08:12:55;98873.22;;;-2.00;69.78
49040;BME280;36811;49.732;13.402;2023-01-29T08:15:20;98878.78;;;-2.13;69.27
49040;BME280;36811;49.732;13.402;2023-01-29T08:17:46;98886.16;;;-2.08;70.62
49040;BME280;36811;49.732;13.402;2023-01-29T08:20:12;98886.16;;;-2.08;70.39
49040;BME280;36811;49.732;13.402;2023-01-29T08:22:37;98898.09;;;-2.06;68.91
49040;BME280;36811;49.732;13.402;2023-01-29T08:25:03;98914.53;;;-2.23;68.45
49040;BME280;36811;49.732;13.402;2023-01-29T08:27:29;98905.81;;;-2.14;70.42
49040;BME280;36811;49.732;13.402;2023-01-29T08:29:54;98921.81;;;-2.09;69.37
49040;BME280;36811;49.732;13.402;2023-01-29T08:32:20;98928.22;;;-2.21;68.19
49040;BME280;36811;49.732;13.402;2023-01-29T08:34:46;98931.28;;;-2.25;68.23
49040;BME280;36811;49.732;13.402;2023-01-29T08:37:11;98922.34;;;-2.23;69.23
49040;BME280;36811;49.732;13.402;2023-01-29T08:39:37;98931.66;;;-2.20;69.67
49040;BME280;36811;49.732;13.402;2023-01-29T08:42:02;98914.16;;;-2.10;68.35
49040;BME280;36811;49.732;13.402;2023-01-29T08:44:28;98904.91;;;-2.05;69.11
49040;BME280;36811;49.732;13.402;2023-01-29T08:46:54;98897.84;;;-1.77;68.49
49040;BME280;36811;49.732;13.402;2023-01-29T08:49:20;98885.38;;;-1.48;69.27
49040;BME280;36811;49.732;13.402;2023-01-29T08:51:45;98883.44;;;-1.20;68.39
49040;BME280;36811;49.732;13.402;2023-01-29T08:54:11;98891.66;;;-0.73;67.66
49040;BME280;36811;49.732;13.402;2023-01-29T08:56:36;98886.19;;;-0.54;66.94
49040;BME280;36811;49.732;13.402;2023-01-29T08:59:02;98891.63;;;-0.39;66.08
49040;BME280;36811;49.732;13.402;2023-01-29T09:01:28;98896.00;;;-0.56;65.47
49040;BME280;36811;49.732;13.402;2023-01-29T09:03:53;98894.72;;;-0.44;66.40
49040;BME280;36811;49.732;13.402;2023-01-29T09:06:19;98890.88;;;0.00;65.86
49040;BME280;36811;49.732;13.402;2023-01-29T09:08:45;98886.63;;;0.64;64.64
49040;BME280;36811;49.732;13.402;2023-01-29T09:11:12;98884.75;;;1.13;63.31
49040;BME280;36811;49.732;13.402;2023-01-29T09:13:38;98883.91;;;1.20;61.37
49040;BME280;36811;49.732;13.402;2023-01-29T09:16:04;98888.28;;;0.65;61.22
49040;BME280;36811;49.732;13.402;2023-01-29T09:18:30;98894.50;;;0.24;62.99
49040;BME280;36811;49.732;13.402;2023-01-29T09:20:57;98914.44;;;0.09;62.76
49040;BME280;36811;49.732;13.402;2023-01-29T09:23:22;98902.63;;;-0.12;62.53
49040;BME280;36811;49.732;13.402;2023-01-29T09:25:48;98904.53;;;-0.30;63.39
49040;BME280;36811;49.732;13.402;2023-01-29T09:28:14;98907.09;;;-0.54;64.04
49040;BME280;36811;49.732;13.402;2023-01-29T09:30:43;98894.94;;;-0.63;63.48
49040;BME280;36811;49.732;13.402;2023-01-29T09:33:08;98890.03;;;-0.74;64.04
49040;BME280;36811;49.732;13.402;2023-01-29T09:35:34;98882.75;;;-0.88;64.42
49040;BME280;36811;49.732;13.402;2023-01-29T09:38:00;98885.63;;;-0.74;65.02
49040;BME280;36811;49.732;13.402;2023-01-29T09:48:26;98898.44;;;0.28;64.16
49040;BME280;36811;49.732;13.402;2023-01-29T09:50:56;98903.44;;;0.94;62.34
49040;BME280;36811;49.732;13.402;2023-01-29T09:53:44;98898.66;;;1.60;60.92
49040;BME280;36811;49.732;13.402;2023-01-29T09:56:15;98898.44;;;2.23;60.79
49040;BME280;36811;49.732;13.402;2023-01-29T09:58:43;98902.34;;;2.27;59.34
49040;BME280;36811;49.732;13.402;2023-01-29T10:04:19;98900.81;;;1.57;60.12
49040;BME280;36811;49.732;13.402;2023-01-29T10:09:55;98904.41;;;1.09;59.55
49040;BME280;36811;49.732;13.402;2023-01-29T10:15:41;98892.75;;;1.11;61.22
49040;BME280;36811;49.732;13.402;2023-01-29T10:21:01;98877.41;;;1.47;58.92
49040;BME280;36811;49.732;13.402;2023-01-29T10:25:57;98850.69;;;1.52;59.35
49040;BME280;36811;49.732;13.402;2023-01-29T10:28:37;98836.16;;;1.72;58.28
49040;BME280;36811;49.732;13.402;2023-01-29T10:31:31;98841.09;;;1.36;58.03
49040;BME280;36811;49.732;13.402;2023-01-29T10:34:22;98844.63;;;1.51;59.49
49040;BME280;36811;49.732;13.402;2023-01-29T10:36:49;98838.59;;;2.56;58.87
49040;BME280;36811;49.732;13.402;2023-01-29T10:44:52;98817.06;;;3.04;57.60
49040;BME280;36811;49.732;13.402;2023-01-29T10:56:31;98817.94;;;3.98;54.50
49040;BME280;36811;49.732;13.402;2023-01-29T10:59:47;98821.84;;;4.02;54.52
49040;BME280;36811;49.732;13.402;2023-01-29T11:02:18;98819.38;;;3.43;55.94
49040;BME280;36811;49.732;13.402;2023-01-29T11:04:46;98821.91;;;3.72;55.66
49040;BME280;36811;49.732;13.402;2023-01-29T11:07:12;98823.09;;;3.49;55.13
49040;BME280;36811;49.732;13.402;2023-01-29T11:09:53;98827.19;;;3.22;55.89
49040;BME280;36811;49.732;13.402;2023-01-29T11:12:28;98815.34;;;3.26;55.68
49040;BME280;36811;49.732;13.402;2023-01-29T11:15:17;98809.00;;;3.06;55.21
49040;BME280;36811;49.732;13.402;2023-01-29T11:18:12;98802.22;;;2.82;55.46
49040;BME280;36811;49.732;13.402;2023-01-29T11:20:44;98791.50;;;2.69;56.05
49040;BME280;36811;49.732;13.402;2023-01-29T11:23:30;98781.56;;;2.79;56.58
49040;BME280;36811;49.732;13.402;2023-01-29T11:25:57;98765.50;;;2.89;55.47
49040;BME280;36811;49.732;13.402;2023-01-29T11:31:02;98750.53;;;3.04;55.92
49040;BME280;36811;49.732;13.402;2023-01-29T11:33:29;98748.88;;;3.17;55.42
49040;BME280;36811;49.732;13.402;2023-01-29T11:35:55;98732.59;;;3.07;55.61
49040;BME280;36811;49.732;13.402;2023-01-29T11:38:25;98731.06;;;3.13;56.58
49040;BME280;36811;49.732;13.402;2023-01-29T11:40:51;98733.97;;;3.03;56.10
49040;BME280;36811;49.732;13.402;2023-01-29T11:43:22;98736.97;;;3.00;56.20
49040;BME280;36811;49.732;13.402;2023-01-29T11:46:05;98735.84;;;3.09;55.24
49040;BME280;36811;49.732;13.402;2023-01-29T11:48:41;98741.19;;;3.16;55.68
49040;BME280;36811;49.732;13.402;2023-01-29T11:51:11;98741.13;;;2.95;55.78
49040;BME280;36811;49.732;13.402;2023-01-29T11:53:44;98731.91;;;2.70;55.81
49040;BME280;36811;49.732;13.402;2023-01-29T11:56:41;98732.19;;;2.45;56.89
49040;BME280;36811;49.732;13.402;2023-01-29T12:01:54;98732.28;;;2.52;57.07
49040;BME280;36811;49.732;13.402;2023-01-29T12:04:22;98733.09;;;2.82;56.39
49040;BME280;36811;49.732;13.402;2023-01-29T12:06:51;98719.59;;;2.85;57.13
49040;BME280;36811;49.732;13.402;2023-01-29T12:09:21;98723.38;;;2.97;56.88
49040;BME280;36811;49.732;13.402;2023-01-29T12:11:48;98718.09;;;2.97;56.16
49040;BME280;36811;49.732;13.402;2023-01-29T12:14:29;98719.78;;;2.54;56.66
49040;BME280;36811;49.732;13.402;2023-01-29T12:17:19;98711.91;;;2.69;56.68
49040;BME280;36811;49.732;13.402;2023-01-29T12:20:00;98715.59;;;2.74;56.46
49040;BME280;36811;49.732;13.402;2023-01-29T12:22:39;98696.88;;;2.63;56.11
49040;BME280;36811;49.732;13.402;2023-01-29T12:25:23;98689.72;;;2.42;56.81
49040;BME280;36811;49.732;13.402;2023-01-29T12:28:04;98691.00;;;2.61;56.45
49040;BME280;36811;49.732;13.402;2023-01-29T12:30:43;98691.69;;;2.69;56.98
49040;BME280;36811;49.732;13.402;2023-01-29T12:36:12;98676.94;;;2.53;56.21
49040;BME280;36811;49.732;13.402;2023-01-29T12:38:39;98670.63;;;2.33;56.94
49040;BME280;36811;49.732;13.402;2023-01-29T12:41:32;98670.00;;;2.17;57.87
49040;BME280;36811;49.732;13.402;2023-01-29T12:46:43;98658.66;;;2.60;57.84
49040;BME280;36811;49.732;13.402;2023-01-29T12:49:22;98662.13;;;2.61;57.46
49040;BME280;36811;49.732;13.402;2023-01-29T12:51:55;98666.38;;;2.47;57.71
49040;BME280;36811;49.732;13.402;2023-01-29T12:54:35;98662.63;;;2.56;57.81
49040;BME280;36811;49.732;13.402;2023-01-29T12:57:08;98657.03;;;2.59;57.92
49040;BME280;36811;49.732;13.402;2023-01-29T12:59:40;98650.53;;;2.26;58.01
49040;BME280;36811;49.732;13.402;2023-01-29T13:02:25;98661.50;;;2.29;58.00
49040;BME280;36811;49.732;13.402;2023-01-29T13:07:30;98646.88;;;2.71;57.97
49040;BME280;36811;49.732;13.402;2023-01-29T13:10:03;98635.06;;;2.81;57.23
49040;BME280;36811;49.732;13.402;2023-01-29T13:12:32;98640.44;;;2.58;57.58
49040;BME280;36811;49.732;13.402;2023-01-29T13:15:05;98628.72;;;2.25;58.09
49040;BME280;36811;49.732;13.402;2023-01-29T13:17:46;98614.88;;;2.31;58.76
49040;BME280;36811;49.732;13.402;2023-01-29T13:20:28;98619.19;;;2.39;58.87
49040;BME280;36811;49.732;13.402;2023-01-29T13:22:58;98624.91;;;2.42;58.43
49040;BME280;36811;49.732;13.402;2023-01-29T13:25:28;98620.56;;;2.49;58.05
49040;BME280;36811;49.732;13.402;2023-01-29T13:27:54;98615.56;;;2.54;57.98
49040;BME280;36811;49.732;13.402;2023-01-29T13:30:30;98616.38;;;2.40;57.78
49040;BME280;36811;49.732;13.402;2023-01-29T13:33:00;98616.75;;;2.23;58.16
49040;BME280;36811;49.732;13.402;2023-01-29T13:35:37;98614.53;;;2.20;58.65
49040;BME280;36811;49.732;13.402;2023-01-29T13:38:04;98607.00;;;2.17;58.88
49040;BME280;36811;49.732;13.402;2023-01-29T13:40:31;98603.13;;;2.27;58.96
49040;BME280;36811;49.732;13.402;2023-01-29T13:43:00;98608.81;;;2.16;59.02
49040;BME280;36811;49.732;13.402;2023-01-29T13:45:41;98610.69;;;1.64;59.52
49040;BME280;36811;49.732;13.402;2023-01-29T13:50:47;98603.72;;;1.56;60.36
49040;BME280;36811;49.732;13.402;2023-01-29T13:53:21;98608.06;;;1.49;60.25
49040;BME280;36811;49.732;13.402;2023-01-29T13:55:48;98602.91;;;1.56;60.41
49040;BME280;36811;49.732;13.402;2023-01-29T14:00:54;98613.28;;;1.26;60.25
49040;BME280;36811;49.732;13.402;2023-01-29T14:06:01;98619.53;;;1.25;60.66
49040;BME280;36811;49.732;13.402;2023-01-29T14:08:45;98620.53;;;1.24;60.02
49040;BME280;36811;49.732;13.402;2023-01-29T14:13:37;98621.94;;;1.12;61.13
49040;BME280;36811;49.732;13.402;2023-01-29T14:18:30;98600.28;;;1.18;60.77
49040;BME280;36811;49.732;13.402;2023-01-29T14:21:02;98602.72;;;1.20;60.54
49040;BME280;36811;49.732;13.402;2023-01-29T14:29:37;98603.78;;;0.88;61.23
49040;BME280;36811;49.732;13.402;2023-01-29T14:31:58;98596.91;;;0.87;60.99
49040;BME280;36811;49.732;13.402;2023-01-29T14:34:30;98585.50;;;0.80;61.21
49040;BME280;36811;49.732;13.402;2023-01-29T14:37:13;98589.78;;;0.73;61.18
49040;BME280;36811;49.732;13.402;2023-01-29T14:39:48;98593.72;;;0.69;61.48
49040;BME280;36811;49.732;13.402;2023-01-29T14:44:56;98570.75;;;0.56;62.13
49040;BME280;36811;49.732;13.402;2023-01-29T14:49:58;98581.44;;;0.47;62.23
49040;BME280;36811;49.732;13.402;2023-01-29T14:52:39;98583.13;;;0.40;62.36
49040;BME280;36811;49.732;13.402;2023-01-29T14:55:18;98584.91;;;0.39;62.72
49040;BME280;36811;49.732;13.402;2023-01-29T14:57:51;98573.34;;;0.26;62.52
49040;BME280;36811;49.732;13.402;2023-01-29T15:00:25;98577.94;;;0.24;62.78
49040;BME280;36811;49.732;13.402;2023-01-29T15:02:52;98576.19;;;0.16;63.24
49040;BME280;36811;49.732;13.402;2023-01-29T15:05:24;98566.34;;;0.18;64.07
49040;BME280;36811;49.732;13.402;2023-01-29T15:10:51;98577.72;;;0.03;64.13
49040;BME280;36811;49.732;13.402;2023-01-29T15:16:26;98577.13;;;-0.16;64.83
49040;BME280;36811;49.732;13.402;2023-01-29T15:18:56;98585.44;;;-0.20;65.08
49040;BME280;36811;49.732;13.402;2023-01-29T15:21:31;98574.34;;;-0.22;64.55
49040;BME280;36811;49.732;13.402;2023-01-29T15:24:05;98570.78;;;-0.29;65.13
49040;BME280;36811;49.732;13.402;2023-01-29T15:26:32;98575.56;;;-0.41;65.49
49040;BME280;36811;49.732;13.402;2023-01-29T15:29:00;98566.25;;;-0.43;65.72